sensor_id;sensor_type;location;lat;lon;timestamp;pressure;altitude;pressure_sealevel;temperature;humidity
19457;BME280;9867;48.094;11.478;2023-07-09T00:01:28;95658.97;;;20.60;100.00
19457;BME280;9867;48.094;11.478;2023-07-09T00:03:56;95656.06;;;20.56;100.00
19457;BME280;9867;48.094;11.478;2023-07-09T00:06:24;95647.34;;;20.46;100.00
19457;BME280;9867;48.094;11.478;2023-07-09T00:08:54;95649.31;;;20.60;100.00
19457;BME280;9867;48.094;11.478;2023-07-09T00:11:21;95654.38;;;20.72;100.00
19457;BME280;9867;48.094;11.478;2023-07-09T00:13:52;95658.09;;;20.76;100.00
19457;BME280;9867;48.094;11.478;2023-07-09T00:16:23;95654.38;;;20.72;100.00
19457;BME280;9867;48.094;11.478;2023-07-09T00:18:52;95648.19;;;20.78;100.00
19457;BME280;9867;48.094;11.478;2023-07-09T00:21:21;95657.97;;;20.66;100.00
19457;BME280;9867;48.094;11.478;2023-07-09T00:23:50;95655.38;;;20.66;100.00
19457;BME280;9867;48.094;11.478;2023-07-09T00:26:20;95665.38;;;20.74;100.00
19457;BME280;9867;48.094;11.478;2023-07-09T00:28:50;95663.06;;;20.77;100.00
19457;BME280;9867;48.094;11.478;2023-07-09T00:31:18;95667.88;;;20.64;100.00
19457;BME280;9867;48.094;11.478;2023-07-09T00:33:46;95670.13;;;20.55;100.00
19457;BME280;9867;48.094;11.478;2023-07-09T00:36:16;95672.09;;;20.43;100.00
19457;BME280;9867;48.094;11.478;2023-07-09T00:38:44;95660.78;;;20.59;100.00
19457;BME280;9867;48.094;11.478;2023-07-09T00:41:17;95667.81;;;20.59;100.00
19457;BME280;9867;48.094;11.478;2023-07-09T00:43:48;95670.72;;;20.62;100.00
19457;BME280;9867;48.094;11.478;2023-07-09T00:49:32;95675.63;;;20.59;100.00
19457;BME280;9867;48.094;11.478;2023-07-09T00:52:07;95678.41;;;20.47;100.00
19457;BME280;9867;48.094;11.478;2023-07-09T00:54:42;95681.06;;;20.52;100.00
19457;BME280;9867;48.094;11.478;2023-07-09T00:57:16;95680.81;;;20.54;100.00
19457;BME280;9867;48.094;11.478;2023-07-09T00:59:49;95680.31;;;20.57;100.00
19457;BME280;9867;48.094;11.478;2023-07-09T01:02:19;95681.25;;;20.46;100.00
19457;BME280;9867;48.094;11.478;2023-07-09T01:04:51;95674.44;;;20.45;100.00
19457;BME280;9867;48.094;11.478;2023-07-09T01:07:23;95678.41;;;20.47;100.00
19457;BME280;9867;48.094;11.478;2023-07-09T01:09:51;95681.72;;;20.42;100.00
19457;BME280;9867;48.094;11.478;2023-07-09T01:12:20;95682.03;;;20.46;100.00
19457;BME280;9867;48.094;11.478;2023-07-09T01:14:51;95682.88;;;20.30;100.00
19457;BME280;9867;48.094;11.478;2023-07-09T01:17:20;95688.81;;;20.25;100.00
19457;BME280;9867;48.094;11.478;2023-07-09T01:19:51;95690.00;;;20.18;100.00
19457;BME280;9867;48.094;11.478;2023-07-09T01:22:22;95694.97;;;20.19;100.00
19457;BME280;9867;48.094;11.478;2023-07-09T01:24:53;95686.38;;;19.97;100.00
19457;BME280;9867;48.094;11.478;2023-07-09T01:27:27;95690.78;;;19.96;100.00
19457;BME280;9867;48.094;11.478;2023-07-09T01:29:56;95687.66;;;20.16;100.00
19457;BME280;9867;48.094;11.478;2023-07-09T01:32:26;95685.53;;;20.13;100.00
19457;BME280;9867;48.094;11.478;2023-07-09T01:34:58;95694.81;;;20.26;100.00
19457;BME280;9867;48.094;11.478;2023-07-09T01:37:35;95699.81;;;20.32;100.00
19457;BME280;9867;48.094;11.478;2023-07-09T01:40:04;95693.66;;;20.38;100.00
19457;BME280;9867;48.094;11.478;2023-07-09T01:42:55;95690.56;;;20.41;100.00
19457;BME280;9867;48.094;11.478;2023-07-09T01:45:24;95699.91;;;20.37;100.00
19457;BME280;9867;48.094;11.478;2023-07-09T01:47:52;95696.56;;;20.42;100.00
19457;BME280;9867;48.094;11.478;2023-07-09T01:50:22;95693.91;;;20.37;100.00
19457;BME280;9867;48.094;11.478;2023-07-09T01:52:53;95697.22;;;20.32;100.00
19457;BME280;9867;48.094;11.478;2023-07-09T01:55:22;95698.00;;;20.33;100.00
19457;BME280;9867;48.094;11.478;2023-07-09T01:57:50;95702.44;;;20.32;100.00
19457;BME280;9867;48.094;11.478;2023-07-09T02:00:19;95700.13;;;20.14;100.00
19457;BME280;9867;48.094;11.478;2023-07-09T02:02:47;95703.41;;;20.26;100.00
19457;BME280;9867;48.094;11.478;2023-07-09T02:05:18;95708.72;;;20.36;100.00
19457;BME280;9867;48.094;11.478;2023-07-09T02:07:47;95708.94;;;20.30;100.00
19457;BME280;9867;48.094;11.478;2023-07-09T02:10:17;95708.00;;;20.19;100.00
19457;BME280;9867;48.094;11.478;2023-07-09T02:12:46;95699.22;;;20.03;100.00
19457;BME280;9867;48.094;11.478;2023-07-09T02:15:15;95705.53;;;20.07;100.00
19457;BME280;9867;48.094;11.478;2023-07-09T02:17:44;95699.81;;;20.10;100.00
19457;BME280;9867;48.094;11.478;2023-07-09T02:20:13;95692.88;;;20.16;100.00
19457;BME280;9867;48.094;11.478;2023-07-09T02:22:42;95699.09;;;20.15;100.00
19457;BME280;9867;48.094;11.478;2023-07-09T02:25:10;95699.22;;;20.03;100.00
19457;BME280;9867;48.094;11.478;2023-07-09T02:27:39;95703.88;;;20.01;100.00
19457;BME280;9867;48.094;11.478;2023-07-09T02:30:08;95700.66;;;19.94;100.00
19457;BME280;9867;48.094;11.478;2023-07-09T02:32:40;95694.91;;;19.92;100.00
19457;BME280;9867;48.094;11.478;2023-07-09T02:35:08;95704.38;;;19.98;100.00
19457;BME280;9867;48.094;11.478;2023-07-09T02:37:36;95703.69;;;19.86;100.00
19457;BME280;9867;48.094;11.478;2023-07-09T02:40:05;95701.63;;;19.88;100.00
19457;BME280;9867;48.094;11.478;2023-07-09T02:42:33;95701.06;;;19.86;100.00
19457;BME280;9867;48.094;11.478;2023-07-09T02:45:04;95707.84;;;19.87;100.00
19457;BME280;9867;48.094;11.478;2023-07-09T02:47:32;95706.47;;;19.80;100.00
19457;BME280;9867;48.094;11.478;2023-07-09T02:50:00;95695.97;;;19.74;100.00
19457;BME280;9867;48.094;11.478;2023-07-09T02:52:29;95706.41;;;19.74;100.00
19457;BME280;9867;48.094;11.478;2023-07-09T02:54:57;95694.94;;;19.75;100.00
19457;BME280;9867;48.094;11.478;2023-07-09T02:57:25;95697.56;;;19.75;100.00
19457;BME280;9867;48.094;11.478;2023-07-09T02:59:53;95699.22;;;19.82;100.00
19457;BME280;9867;48.094;11.478;2023-07-09T03:02:22;95699.94;;;19.77;100.00
19457;BME280;9867;48.094;11.478;2023-07-09T03:04:50;95703.63;;;19.81;100.00
19457;BME280;9867;48.094;11.478;2023-07-09T03:07:18;95707.03;;;19.82;100.00
19457;BME280;9867;48.094;11.478;2023-07-09T03:09:46;95704.66;;;19.80;100.00
19457;BME280;9867;48.094;11.478;2023-07-09T03:12:14;95706.94;;;19.77;100.00
19457;BME280;9867;48.094;11.478;2023-07-09T03:14:42;95708.03;;;19.81;100.00
19457;BME280;9867;48.094;11.478;2023-07-09T03:17:10;95718.38;;;19.75;100.00
19457;BME280;9867;48.094;11.478;2023-07-09T03:19:39;95709.88;;;19.80;100.00
19457;BME280;9867;48.094;11.478;2023-07-09T03:22:07;95717.13;;;19.78;100.00
19457;BME280;9867;48.094;11.478;2023-07-09T03:24:35;95718.94;;;19.78;100.00
19457;BME280;9867;48.094;11.478;2023-07-09T03:27:03;95709.47;;;19.71;100.00
19457;BME280;9867;48.094;11.478;2023-07-09T03:29:31;95717.03;;;19.73;100.00
19457;BME280;9867;48.094;11.478;2023-07-09T03:31:59;95723.59;;;19.75;100.00
19457;BME280;9867;48.094;11.478;2023-07-09T03:34:27;95724.22;;;19.66;100.00
19457;BME280;9867;48.094;11.478;2023-07-09T03:36:56;95725.88;;;19.72;100.00
19457;BME280;9867;48.094;11.478;2023-07-09T03:39:24;95725.88;;;19.72;100.00
19457;BME280;9867;48.094;11.478;2023-07-09T03:41:52;95723.84;;;19.74;100.00
19457;BME280;9867;48.094;11.478;2023-07-09T03:44:20;95721.38;;;19.67;100.00
19457;BME280;9867;48.094;11.478;2023-07-09T03:46:48;95726.19;;;19.75;100.00
19457;BME280;9867;48.094;11.478;2023-07-09T03:49:16;95725.81;;;19.84;100.00
19457;BME280;9867;48.094;11.478;2023-07-09T03:51:43;95726.56;;;19.84;100.00
19457;BME280;9867;48.094;11.478;2023-07-09T03:54:13;95729.44;;;19.83;100.00
19457;BME280;9867;48.094;11.478;2023-07-09T03:56:40;95733.63;;;19.84;100.00
19457;BME280;9867;48.094;11.478;2023-07-09T03:59:08;95737.97;;;19.78;100.00
19457;BME280;9867;48.094;11.478;2023-07-09T04:01:36;95735.91;;;19.80;100.00
19457;BME280;9867;48.094;11.478;2023-07-09T04:04:04;95730.47;;;19.82;100.00
19457;BME280;9867;48.094;11.478;2023-07-09T04:06:32;95733.34;;;19.85;100.00
19457;BME280;9867;48.094;11.478;2023-07-09T04:09:00;95735.72;;;19.87;100.00
19457;BME280;9867;48.094;11.478;2023-07-09T04:11:29;95732.31;;;19.86;100.00
19457;BME280;9867;48.094;11.478;2023-07-09T04:13:57;95732.41;;;19.91;100.00
19457;BME280;9867;48.094;11.478;2023-07-09T04:16:25;95730.28;;;20.10;100.00
19457;BME280;9867;48.094;11.478;2023-07-09T04:18:53;95737.03;;;20.06;100.00
19457;BME280;9867;48.094;11.478;2023-07-09T04:21:21;95732.63;;;20.06;100.00
19457;BME280;9867;48.094;11.478;2023-07-09T04:23:49;95735.03;;;20.13;100.00
19457;BME280;9867;48.094;11.478;2023-07-09T04:26:16;95737.78;;;20.23;100.00
19457;BME280;9867;48.094;11.478;2023-07-09T04:28:46;95745.41;;;20.30;100.00
19457;BME280;9867;48.094;11.478;2023-07-09T04:31:14;95748.81;;;20.30;100.00
19457;BME280;9867;48.094;11.478;2023-07-09T04:33:41;95751.16;;;20.32;100.00
19457;BME280;9867;48.094;11.478;2023-07-09T04:36:09;95750.44;;;20.36;100.00
19457;BME280;9867;48.094;11.478;2023-07-09T04:38:39;95745.94;;;20.49;100.00
19457;BME280;9867;48.094;11.478;2023-07-09T04:41:07;95744.66;;;20.51;100.00
19457;BME280;9867;48.094;11.478;2023-07-09T04:43:35;95757.72;;;20.56;100.00
19457;BME280;9867;48.094;11.478;2023-07-09T04:46:04;95756.66;;;20.52;100.00
19457;BME280;9867;48.094;11.478;2023-07-09T04:48:33;95757.25;;;20.59;100.00
19457;BME280;9867;48.094;11.478;2023-07-09T04:51:01;95759.38;;;20.62;100.00
19457;BME280;9867;48.094;11.478;2023-07-09T04:53:28;95757.56;;;20.63;100.00
19457;BME280;9867;48.094;11.478;2023-07-09T04:55:56;95756.53;;;20.64;100.00
19457;BME280;9867;48.094;11.478;2023-07-09T04:58:24;95759.50;;;20.72;100.00
19457;BME280;9867;48.094;11.478;2023-07-09T05:00:52;95764.56;;;20.84;100.00
19457;BME280;9867;48.094;11.478;2023-07-09T05:03:25;95757.41;;;20.96;100.00
19457;BME280;9867;48.094;11.478;2023-07-09T05:05:53;95756.75;;;21.11;100.00
19457;BME280;9867;48.094;11.478;2023-07-09T05:08:21;95761.63;;;21.24;100.00
19457;BME280;9867;48.094;11.478;2023-07-09T05:10:50;95757.19;;;21.30;100.00
19457;BME280;9867;48.094;11.478;2023-07-09T05:13:19;95748.38;;;21.36;100.00
19457;BME280;9867;48.094;11.478;2023-07-09T05:15:48;95755.22;;;21.42;100.00
19457;BME280;9867;48.094;11.478;2023-07-09T05:18:17;95756.56;;;21.50;100.00
19457;BME280;9867;48.094;11.478;2023-07-09T05:20:47;95755.88;;;21.59;100.00
19457;BME280;9867;48.094;11.478;2023-07-09T05:23:15;95760.16;;;21.70;100.00
19457;BME280;9867;48.094;11.478;2023-07-09T05:25:43;95761.00;;;21.81;100.00
19457;BME280;9867;48.094;11.478;2023-07-09T05:28:11;95764.47;;;21.97;100.00
19457;BME280;9867;48.094;11.478;2023-07-09T05:30:41;95761.69;;;22.03;100.00
19457;BME280;9867;48.094;11.478;2023-07-09T05:33:09;95765.16;;;22.14;100.00
19457;BME280;9867;48.094;11.478;2023-07-09T05:35:37;95771.47;;;22.28;100.00
19457;BME280;9867;48.094;11.478;2023-07-09T05:38:06;95759.72;;;22.31;100.00
19457;BME280;9867;48.094;11.478;2023-07-09T05:40:34;95771.53;;;22.33;100.00
19457;BME280;9867;48.094;11.478;2023-07-09T05:43:02;95775.22;;;22.42;100.00
19457;BME280;9867;48.094;11.478;2023-07-09T05:45:30;95772.09;;;22.51;100.00
19457;BME280;9867;48.094;11.478;2023-07-09T05:47:58;95771.63;;;22.59;100.00
19457;BME280;9867;48.094;11.478;2023-07-09T05:50:27;95777.41;;;22.71;100.00
19457;BME280;9867;48.094;11.478;2023-07-09T05:52:55;95783.50;;;22.82;100.00
19457;BME280;9867;48.094;11.478;2023-07-09T05:55:24;95785.34;;;22.86;100.00
19457;BME280;9867;48.094;11.478;2023-07-09T05:57:52;95785.38;;;23.01;100.00
19457;BME280;9867;48.094;11.478;2023-07-09T06:00:20;95783.59;;;23.12;100.00
19457;BME280;9867;48.094;11.478;2023-07-09T06:02:48;95786.22;;;23.27;100.00
19457;BME280;9867;48.094;11.478;2023-07-09T06:05:16;95782.59;;;23.38;100.00
19457;BME280;9867;48.094;11.478;2023-07-09T06:07:44;95790.69;;;23.42;100.00
19457;BME280;9867;48.094;11.478;2023-07-09T06:10:12;95789.41;;;23.55;100.00
19457;BME280;9867;48.094;11.478;2023-07-09T06:12:42;95790.97;;;23.66;100.00
19457;BME280;9867;48.094;11.478;2023-07-09T06:15:10;95788.38;;;23.76;100.00
19457;BME280;9867;48.094;11.478;2023-07-09T06:17:37;95788.59;;;23.90;100.00
19457;BME280;9867;48.094;11.478;2023-07-09T06:20:06;95792.00;;;24.05;100.00
19457;BME280;9867;48.094;11.478;2023-07-09T06:22:34;95794.84;;;24.19;100.00
19457;BME280;9867;48.094;11.478;2023-07-09T06:25:03;95793.56;;;24.32;100.00
19457;BME280;9867;48.094;11.478;2023-07-09T06:27:31;95793.78;;;24.35;100.00
19457;BME280;9867;48.094;11.478;2023-07-09T06:30:00;95805.06;;;24.41;100.00
19457;BME280;9867;48.094;11.478;2023-07-09T06:32:28;95801.63;;;24.51;100.00
19457;BME280;9867;48.094;11.478;2023-07-09T06:34:56;95800.28;;;24.58;100.00
19457;BME280;9867;48.094;11.478;2023-07-09T06:37:23;95790.00;;;24.72;100.00
19457;BME280;9867;48.094;11.478;2023-07-09T06:39:51;95794.38;;;24.87;100.00
19457;BME280;9867;48.094;11.478;2023-07-09T06:42:19;95790.97;;;24.96;100.00
19457;BME280;9867;48.094;11.478;2023-07-09T06:44:59;95800.31;;;25.12;100.00
19457;BME280;9867;48.094;11.478;2023-07-09T06:47:27;95792.44;;;25.12;100.00
19457;BME280;9867;48.094;11.478;2023-07-09T06:49:55;95792.66;;;25.21;100.00
19457;BME280;9867;48.094;11.478;2023-07-09T06:52:23;95795.94;;;25.42;100.00
19457;BME280;9867;48.094;11.478;2023-07-09T06:54:51;95797.13;;;25.55;99.00
19457;BME280;9867;48.094;11.478;2023-07-09T06:57:19;95793.97;;;25.58;94.93
19457;BME280;9867;48.094;11.478;2023-07-09T06:59:47;95799.69;;;25.70;95.04
19457;BME280;9867;48.094;11.478;2023-07-09T07:02:16;95791.03;;;25.69;94.18
19457;BME280;9867;48.094;11.478;2023-07-09T07:04:44;95794.81;;;25.87;94.02
19457;BME280;9867;48.094;11.478;2023-07-09T07:07:12;95793.53;;;25.79;91.68
19457;BME280;9867;48.094;11.478;2023-07-09T07:09:40;95796.34;;;25.93;92.19
19457;BME280;9867;48.094;11.478;2023-07-09T07:12:08;95804.03;;;25.85;94.57
19457;BME280;9867;48.094;11.478;2023-07-09T07:14:36;95799.47;;;25.95;93.67
19457;BME280;9867;48.094;11.478;2023-07-09T07:17:04;95788.28;;;26.08;90.73
19457;BME280;9867;48.094;11.478;2023-07-09T07:19:33;95793.22;;;26.15;93.50
19457;BME280;9867;48.094;11.478;2023-07-09T07:22:01;95792.06;;;26.26;87.97
19457;BME280;9867;48.094;11.478;2023-07-09T07:24:29;95798.53;;;26.39;86.52
19457;BME280;9867;48.094;11.478;2023-07-09T07:26:57;95788.78;;;26.39;91.85
19457;BME280;9867;48.094;11.478;2023-07-09T07:29:25;95792.22;;;26.40;88.51
19457;BME280;9867;48.094;11.478;2023-07-09T07:31:53;95785.94;;;26.36;90.43
19457;BME280;9867;48.094;11.478;2023-07-09T07:34:21;95784.91;;;26.56;87.73
19457;BME280;9867;48.094;11.478;2023-07-09T07:36:50;95794.00;;;26.68;86.26
19457;BME280;9867;48.094;11.478;2023-07-09T07:39:18;95786.75;;;26.79;82.42
19457;BME280;9867;48.094;11.478;2023-07-09T07:41:46;95790.03;;;26.90;78.77
19457;BME280;9867;48.094;11.478;2023-07-09T07:44:14;95786.75;;;26.79;71.30
19457;BME280;9867;48.094;11.478;2023-07-09T07:46:42;95786.44;;;27.04;73.12
19457;BME280;9867;48.094;11.478;2023-07-09T07:49:11;95784.38;;;27.20;72.10
19457;BME280;9867;48.094;11.478;2023-07-09T07:51:39;95787.94;;;27.10;75.00
19457;BME280;9867;48.094;11.478;2023-07-09T07:54:08;95786.09;;;27.11;73.85
19457;BME280;9867;48.094;11.478;2023-07-09T07:56:37;95780.25;;;27.33;70.65
19457;BME280;9867;48.094;11.478;2023-07-09T07:59:06;95776.25;;;27.35;70.80
19457;BME280;9867;48.094;11.478;2023-07-09T08:01:34;95776.94;;;27.41;71.46
19457;BME280;9867;48.094;11.478;2023-07-09T08:04:03;95772.44;;;27.41;71.64
19457;BME280;9867;48.094;11.478;2023-07-09T08:06:31;95778.38;;;27.33;71.93
19457;BME280;9867;48.094;11.478;2023-07-09T08:08:59;95783.59;;;27.38;70.86
19457;BME280;9867;48.094;11.478;2023-07-09T08:11:28;95779.22;;;27.47;69.00
19457;BME280;9867;48.094;11.478;2023-07-09T08:13:59;95777.25;;;27.58;70.17
19457;BME280;9867;48.094;11.478;2023-07-09T08:16:27;95771.72;;;27.55;71.43
19457;BME280;9867;48.094;11.478;2023-07-09T08:18:55;95772.28;;;27.70;69.08
19457;BME280;9867;48.094;11.478;2023-07-09T08:21:23;95764.03;;;27.91;67.02
19457;BME280;9867;48.094;11.478;2023-07-09T08:23:51;95769.06;;;28.19;67.67
19457;BME280;9867;48.094;11.478;2023-07-09T08:26:19;95769.09;;;28.47;64.75
19457;BME280;9867;48.094;11.478;2023-07-09T08:28:49;95770.81;;;28.65;64.55
19457;BME280;9867;48.094;11.478;2023-07-09T08:31:18;95756.06;;;28.78;61.81
19457;BME280;9867;48.094;11.478;2023-07-09T08:33:46;95767.09;;;28.80;60.09
19457;BME280;9867;48.094;11.478;2023-07-09T08:36:14;95759.88;;;28.72;59.12
19457;BME280;9867;48.094;11.478;2023-07-09T08:38:42;95757.06;;;28.55;58.32
19457;BME280;9867;48.094;11.478;2023-07-09T08:41:19;95753.59;;;28.68;57.95
19457;BME280;9867;48.094;11.478;2023-07-09T08:43:59;95754.78;;;28.89;57.25
19457;BME280;9867;48.094;11.478;2023-07-09T08:46:36;95755.16;;;28.96;55.47
19457;BME280;9867;48.094;11.478;2023-07-09T08:49:17;95759.41;;;29.06;61.27
19457;BME280;9867;48.094;11.478;2023-07-09T08:51:48;95754.59;;;29.22;63.29
19457;BME280;9867;48.094;11.478;2023-07-09T08:54:22;95752.44;;;29.24;57.96
19457;BME280;9867;48.094;11.478;2023-07-09T08:56:56;95755.41;;;29.31;57.46
19457;BME280;9867;48.094;11.478;2023-07-09T08:59:26;95757.28;;;29.30;58.17
19457;BME280;9867;48.094;11.478;2023-07-09T09:01:57;95755.59;;;29.34;48.23
19457;BME280;9867;48.094;11.478;2023-07-09T09:04:28;95752.56;;;29.41;49.03
19457;BME280;9867;48.094;11.478;2023-07-09T09:07:02;95759.50;;;29.50;46.57
19457;BME280;9867;48.094;11.478;2023-07-09T09:09:38;95752.53;;;29.18;43.21
19457;BME280;9867;48.094;11.478;2023-07-09T09:12:12;95764.75;;;29.28;45.34
19457;BME280;9867;48.094;11.478;2023-07-09T09:14:44;95763.16;;;29.41;42.02
19457;BME280;9867;48.094;11.478;2023-07-09T09:17:15;95764.72;;;29.42;44.09
19457;BME280;9867;48.094;11.478;2023-07-09T09:19:47;95759.72;;;29.63;43.69
19457;BME280;9867;48.094;11.478;2023-07-09T09:22:21;95761.66;;;29.48;42.44
19457;BME280;9867;48.094;11.478;2023-07-09T09:24:58;95761.84;;;29.74;43.28
19457;BME280;9867;48.094;11.478;2023-07-09T09:27:27;95763.69;;;29.74;45.29
19457;BME280;9867;48.094;11.478;2023-07-09T09:29:56;95753.59;;;29.53;43.36
19457;BME280;9867;48.094;11.478;2023-07-09T09:32:26;95759.22;;;29.83;44.36
19457;BME280;9867;48.094;11.478;2023-07-09T09:34:55;95760.53;;;29.94;45.19
19457;BME280;9867;48.094;11.478;2023-07-09T09:37:26;95759.41;;;30.17;44.23
19457;BME280;9867;48.094;11.478;2023-07-09T09:39:58;95759.47;;;30.35;42.94
19457;BME280;9867;48.094;11.478;2023-07-09T09:42:29;95761.78;;;30.28;45.11
19457;BME280;9867;48.094;11.478;2023-07-09T09:44:59;95758.03;;;30.29;45.37
19457;BME280;9867;48.094;11.478;2023-07-09T09:47:27;95759.97;;;30.06;46.73
19457;BME280;9867;48.094;11.478;2023-07-09T09:49:55;95765.56;;;30.04;45.49
19457;BME280;9867;48.094;11.478;2023-07-09T09:52:29;95763.59;;;30.10;44.36
19457;BME280;9867;48.094;11.478;2023-07-09T09:55:02;95759.66;;;30.38;43.23
19457;BME280;9867;48.094;11.478;2023-07-09T09:57:31;95760.56;;;30.34;42.60
19457;BME280;9867;48.094;11.478;2023-07-09T10:00:01;95759.03;;;30.02;42.12
19457;BME280;9867;48.094;11.478;2023-07-09T10:02:39;95759.81;;;30.42;43.34
19457;BME280;9867;48.094;11.478;2023-07-09T10:05:12;95758.19;;;30.72;43.55
19457;BME280;9867;48.094;11.478;2023-07-09T10:07:44;95758.03;;;30.29;41.78
19457;BME280;9867;48.094;11.478;2023-07-09T10:10:21;95754.22;;;30.52;41.47
19457;BME280;9867;48.094;11.478;2023-07-09T10:12:53;95754.03;;;30.40;40.99
19457;BME280;9867;48.094;11.478;2023-07-09T10:15:34;95754.59;;;30.59;41.11
19457;BME280;9867;48.094;11.478;2023-07-09T10:18:13;95754.09;;;30.57;38.92
19457;BME280;9867;48.094;11.478;2023-07-09T10:20:49;95753.06;;;30.67;37.35
19457;BME280;9867;48.094;11.478;2023-07-09T10:23:25;95747.34;;;30.51;37.97
19457;BME280;9867;48.094;11.478;2023-07-09T10:25:59;95758.13;;;30.46;37.48
19457;BME280;9867;48.094;11.478;2023-07-09T10:28:41;95752.75;;;30.68;37.40
19457;BME280;9867;48.094;11.478;2023-07-09T10:31:17;95748.91;;;30.43;38.05
19457;BME280;9867;48.094;11.478;2023-07-09T10:33:59;95748.22;;;30.77;38.03
19457;BME280;9867;48.094;11.478;2023-07-09T10:39:28;95748.06;;;31.77;40.62
19457;BME280;9867;48.094;11.478;2023-07-09T10:42:00;95751.78;;;31.94;39.44
19457;BME280;9867;48.094;11.478;2023-07-09T10:44:32;95762.91;;;31.70;41.67
19457;BME280;9867;48.094;11.478;2023-07-09T10:47:05;95750.97;;;32.02;41.81
19457;BME280;9867;48.094;11.478;2023-07-09T10:49:38;95754.25;;;32.07;37.50
19457;BME280;9867;48.094;11.478;2023-07-09T10:52:11;95759.81;;;32.23;37.93
19457;BME280;9867;48.094;11.478;2023-07-09T10:54:49;95749.41;;;32.47;40.11
19457;BME280;9867;48.094;11.478;2023-07-09T10:57:25;95746.84;;;32.13;37.62
19457;BME280;9867;48.094;11.478;2023-07-09T10:59:56;95738.16;;;32.42;38.05
19457;BME280;9867;48.094;11.478;2023-07-09T11:02:30;95745.09;;;32.34;37.75
19457;BME280;9867;48.094;11.478;2023-07-09T11:05:00;95743.88;;;32.23;38.67
19457;BME280;9867;48.094;11.478;2023-07-09T11:07:32;95745.91;;;32.56;37.27
19457;BME280;9867;48.094;11.478;2023-07-09T11:10:04;95730.34;;;32.75;39.80
19457;BME280;9867;48.094;11.478;2023-07-09T11:12:37;95732.41;;;32.90;38.09
19457;BME280;9867;48.094;11.478;2023-07-09T11:15:10;95727.03;;;32.48;36.77
19457;BME280;9867;48.094;11.478;2023-07-09T11:17:45;95728.94;;;32.69;36.21
19457;BME280;9867;48.094;11.478;2023-07-09T11:20:19;95730.56;;;32.32;35.23
19457;BME280;9867;48.094;11.478;2023-07-09T11:22:53;95725.38;;;32.65;36.79
19457;BME280;9867;48.094;11.478;2023-07-09T11:25:30;95733.78;;;32.96;35.06
19457;BME280;9867;48.094;11.478;2023-07-09T11:28:03;95730.28;;;33.04;36.12
19457;BME280;9867;48.094;11.478;2023-07-09T11:30:32;95732.50;;;32.73;32.97
19457;BME280;9867;48.094;11.478;2023-07-09T11:33:04;95718.31;;;32.10;35.00
19457;BME280;9867;48.094;11.478;2023-07-09T11:35:51;95725.03;;;32.75;35.61
19457;BME280;9867;48.094;11.478;2023-07-09T11:38:21;95719.25;;;32.94;35.32
19457;BME280;9867;48.094;11.478;2023-07-09T11:40:50;95718.28;;;32.48;34.51
19457;BME280;9867;48.094;11.478;2023-07-09T11:43:31;95712.84;;;32.44;35.76
19457;BME280;9867;48.094;11.478;2023-07-09T11:46:07;95713.13;;;32.72;34.90
19457;BME280;9867;48.094;11.478;2023-07-09T11:48:41;95712.50;;;32.96;34.29
19457;BME280;9867;48.094;11.478;2023-07-09T11:51:15;95699.69;;;32.48;32.39
19457;BME280;9867;48.094;11.478;2023-07-09T11:53:46;95703.47;;;32.68;33.45
19457;BME280;9867;48.094;11.478;2023-07-09T11:56:18;95703.16;;;33.11;35.52
19457;BME280;9867;48.094;11.478;2023-07-09T11:58:50;95700.88;;;33.87;34.15
19457;BME280;9867;48.094;11.478;2023-07-09T12:01:21;95698.78;;;33.93;32.30
19457;BME280;9867;48.094;11.478;2023-07-09T12:03:51;95700.81;;;33.63;33.90
19457;BME280;9867;48.094;11.478;2023-07-09T12:06:22;95691.91;;;33.59;35.96
19457;BME280;9867;48.094;11.478;2023-07-09T12:08:51;95691.81;;;33.68;32.21
19457;BME280;9867;48.094;11.478;2023-07-09T12:11:21;95682.69;;;34.14;34.05
19457;BME280;9867;48.094;11.478;2023-07-09T12:13:50;95677.53;;;33.72;34.46
19457;BME280;9867;48.094;11.478;2023-07-09T12:16:21;95674.47;;;34.19;34.69
19457;BME280;9867;48.094;11.478;2023-07-09T12:18:51;95673.66;;;34.67;35.50
19457;BME280;9867;48.094;11.478;2023-07-09T12:21:19;95676.44;;;34.71;34.25
19457;BME280;9867;48.094;11.478;2023-07-09T12:23:48;95666.78;;;34.54;35.44
19457;BME280;9867;48.094;11.478;2023-07-09T12:26:18;95676.50;;;34.86;35.18
19457;BME280;9867;48.094;11.478;2023-07-09T12:28:50;95675.38;;;33.99;34.05
19457;BME280;9867;48.094;11.478;2023-07-09T12:31:26;95665.56;;;34.27;34.39
19457;BME280;9867;48.094;11.478;2023-07-09T12:33:57;95664.44;;;34.28;32.69
19457;BME280;9867;48.094;11.478;2023-07-09T12:36:28;95672.59;;;34.44;33.33
19457;BME280;9867;48.094;11.478;2023-07-09T12:39:00;95668.59;;;34.13;34.59
19457;BME280;9867;48.094;11.478;2023-07-09T12:41:34;95674.16;;;33.96;32.58
19457;BME280;9867;48.094;11.478;2023-07-09T12:44:03;95663.78;;;34.55;34.34
19457;BME280;9867;48.094;11.478;2023-07-09T12:46:32;95664.44;;;34.52;34.75
19457;BME280;9867;48.094;11.478;2023-07-09T12:49:01;95645.81;;;34.28;30.64
19457;BME280;9867;48.094;11.478;2023-07-09T12:51:29;95642.94;;;34.21;31.49
19457;BME280;9867;48.094;11.478;2023-07-09T12:54:03;95650.59;;;34.35;30.11
19457;BME280;9867;48.094;11.478;2023-07-09T12:56:34;95650.50;;;34.19;32.56
19457;BME280;9867;48.094;11.478;2023-07-09T12:59:04;95645.63;;;34.85;33.75
19457;BME280;9867;48.094;11.478;2023-07-09T13:01:42;95653.53;;;35.38;32.91
19457;BME280;9867;48.094;11.478;2023-07-09T13:04:16;95649.66;;;35.51;33.33
19457;BME280;9867;48.094;11.478;2023-07-09T13:06:44;95640.94;;;35.70;32.76
19457;BME280;9867;48.094;11.478;2023-07-09T13:09:19;95639.53;;;35.88;31.95
19457;BME280;9867;48.094;11.478;2023-07-09T13:11:48;95636.94;;;34.24;30.04
19457;BME280;9867;48.094;11.478;2023-07-09T13:14:19;95640.63;;;33.95;29.42
19457;BME280;9867;48.094;11.478;2023-07-09T13:16:48;95636.28;;;33.78;30.00